Time;durP1;ratioP1;P1;durP2;ratioP2;P2;SDS_P1;SDS_P2;PMS_P1;PMS_P2;Temp;Humidity;BMP_temperature;BMP_pressure;BME280_temperature;BME280_humidity;BME280_pressure;Samples;Min_cycle;Max_cycle;Signal;HPM_P1;HPM_P2
2021/11/29 00:00:27;;;;;;;1.77;1.30;;;18.80;69.80;;;;;;5015637;28;96313;-58
2021/11/29 00:03:03;;;;;;;2.55;1.30;;;18.90;69.80;;;;;;5022733;27;95927;-58
2021/11/29 00:05:35;;;;;;;2.03;1.10;;;19.00;69.70;;;;;;5021910;27;96039;-61
2021/11/29 00:08:06;;;;;;;2.70;1.70;;;19.10;69.50;;;;;;4994837;28;95885;-57
2021/11/29 00:10:37;;;;;;;2.67;1.15;;;19.20;69.30;;;;;;5013302;27;95718;-58
2021/11/29 00:13:08;;;;;;;1.37;1.10;;;19.30;69.20;;;;;;4994723;28;95747;-57
2021/11/29 00:15:40;;;;;;;2.97;1.27;;;19.40;69.00;;;;;;5014177;27;97433;-51
2021/11/29 00:18:13;;;;;;;1.40;1.02;;;19.50;68.90;;;;;;5008629;28;96451;-53
2021/11/29 00:20:46;;;;;;;1.50;1.08;;;19.60;68.70;;;;;;5018699;28;95992;-59
2021/11/29 00:23:19;;;;;;;1.77;1.15;;;19.70;68.80;;;;;;5021379;27;95738;-51
2021/11/29 00:25:51;;;;;;;1.30;1.10;;;19.80;67.60;;;;;;5013843;28;96589;-55
2021/11/29 00:28:22;;;;;;;2.03;1.15;;;19.90;67.80;;;;;;5018418;27;96583;-59
2021/11/29 00:30:54;;;;;;;2.65;1.17;;;20.00;68.40;;;;;;5020214;28;96496;-50
2021/11/29 00:33:24;;;;;;;9.15;1.52;;;20.10;68.20;;;;;;5019706;27;95835;-54
2021/11/29 00:35:55;;;;;;;2.28;1.05;;;19.90;64.30;;;;;;5018946;27;97895;-52
2021/11/29 00:38:28;;;;;;;2.28;1.70;;;19.70;64.10;;;;;;5020005;28;95747;-52
2021/11/29 00:40:59;;;;;;;8.50;1.25;;;19.60;64.10;;;;;;5014006;27;96252;-51
2021/11/29 00:43:29;;;;;;;7.13;2.13;;;19.50;64.00;;;;;;5004925;27;96121;-56
2021/11/29 00:46:05;;;;;;;3.38;1.60;;;19.50;63.10;;;;;;5020632;28;95912;-58
2021/11/29 00:48:39;;;;;;;3.72;1.02;;;19.50;63.00;;;;;;5022567;27;95983;-55
2021/11/29 00:51:12;;;;;;;7.05;1.75;;;19.60;62.90;;;;;;5015813;28;96448;-56
2021/11/29 00:53:42;;;;;;;8.90;1.35;;;19.60;62.80;;;;;;5034868;27;96476;-50
2021/11/29 00:56:15;;;;;;;4.15;1.80;;;19.60;62.00;;;;;;5021148;28;96746;-57
2021/11/29 00:58:46;;;;;;;3.53;1.50;;;19.60;62.70;;;;;;5012483;28;96388;-56
2021/11/29 01:01:18;;;;;;;3.55;1.30;;;19.70;62.20;;;;;;5017877;28;95821;-58
2021/11/29 01:03:50;;;;;;;2.38;1.35;;;19.70;63.10;;;;;;5002391;28;98170;-56
2021/11/29 01:06:25;;;;;;;2.53;1.38;;;19.70;63.40;;;;;;5019012;28;96108;-59
2021/11/29 01:08:56;;;;;;;2.60;1.23;;;19.70;63.40;;;;;;5019881;28;95980;-56
2021/11/29 01:11:27;;;;;;;2.45;1.10;;;19.90;63.80;;;;;;5013856;27;96038;-53
2021/11/29 01:14:00;;;;;;;4.95;1.65;;;20.10;63.70;;;;;;5014229;28;95754;-57
2021/11/29 01:16:33;;;;;;;5.20;1.27;;;20.30;63.60;;;;;;5011809;28;96040;-59
2021/11/29 01:19:07;;;;;;;2.78;1.58;;;20.40;63.50;;;;;;5011032;28;96104;-54
2021/11/29 01:21:41;;;;;;;1.52;1.05;;;20.60;63.50;;;;;;4990970;28;97688;-53
2021/11/29 01:24:17;;;;;;;3.42;1.00;;;20.70;63.50;;;;;;5022701;27;96361;-57
2021/11/29 01:26:50;;;;;;;2.00;1.23;;;20.80;63.50;;;;;;5004498;28;98247;-53
2021/11/29 01:29:23;;;;;;;4.88;1.42;;;20.80;63.50;;;;;;5022552;27;96478;-57
2021/11/29 01:31:57;;;;;;;1.20;1.10;;;21.00;63.50;;;;;;5020090;28;96222;-61
2021/11/29 01:34:27;;;;;;;1.75;0.98;;;21.10;63.60;;;;;;5020655;28;95990;-66
2021/11/29 01:37:02;;;;;;;0.88;0.77;;;21.20;63.70;;;;;;5025684;27;97138;-58
2021/11/29 01:39:31;;;;;;;;;;;21.20;63.00;;;;;;5020208;27;96179;-55
2021/11/29 01:42:02;;;;;;;4.35;1.20;;;21.10;60.90;;;;;;5017046;27;95766;-57
2021/11/29 01:44:34;;;;;;;3.35;1.42;;;20.90;61.60;;;;;;5021916;28;96417;-57
2021/11/29 01:47:07;;;;;;;2.28;1.38;;;20.90;62.00;;;;;;5005942;28;96714;-54
2021/11/29 01:49:37;;;;;;;3.45;1.27;;;20.80;62.30;;;;;;5018330;27;97649;-54
2021/11/29 01:52:09;;;;;;;3.10;1.55;;;20.80;62.20;;;;;;5020236;28;95776;-56
2021/11/29 01:54:43;;;;;;;1.27;1.17;;;20.80;62.40;;;;;;5021433;27;96850;-56
2021/11/29 01:57:14;;;;;;;2.22;1.30;;;20.80;62.50;;;;;;5019871;27;96097;-54
2021/11/29 01:59:45;;;;;;;1.92;1.15;;;20.80;62.70;;;;;;5002349;28;97001;-53
2021/11/29 02:02:17;;;;;;;6.90;1.75;;;20.80;62.70;;;;;;5020313;28;96630;-58
2021/11/29 02:04:53;;;;;;;2.50;1.60;;;20.90;63.10;;;;;;5021131;28;96195;-53
2021/11/29 02:07:24;;;;;;;3.55;1.40;;;21.10;62.60;;;;;;5000357;28;98001;-51
2021/11/29 02:09:54;;;;;;;2.10;1.40;;;21.30;62.80;;;;;;5021398;28;96245;-56
2021/11/29 02:12:25;;;;;;;3.90;2.13;;;21.40;62.70;;;;;;5021160;27;95348;-54
2021/11/29 02:15:00;;;;;;;5.63;2.05;;;21.50;59.10;;;;;;5005606;28;95791;-52
2021/11/29 02:17:33;;;;;;;7.00;2.13;;;21.20;56.50;;;;;;5023011;27;96066;-55
2021/11/29 02:20:05;;;;;;;2.33;1.58;;;21.00;58.60;;;;;;5022915;28;96926;-52
2021/11/29 02:22:39;;;;;;;5.72;1.88;;;21.30;59.70;;;;;;5015469;28;95653;-48
2021/11/29 02:25:11;;;;;;;4.30;1.70;;;21.50;59.60;;;;;;5021703;28;95609;-47
2021/11/29 02:27:45;;;;;;;2.83;1.77;;;21.80;59.50;;;;;;5021804;28;96643;-48
2021/11/29 02:30:18;;;;;;;2.47;1.73;;;22.10;59.40;;;;;;5022366;28;96761;-51
2021/11/29 02:32:52;;;;;;;2.22;1.42;;;22.30;59.10;;;;;;5020465;27;97529;-53
2021/11/29 02:35:23;;;;;;;2.85;1.55;;;22.50;59.00;;;;;;5023195;28;96317;-48
2021/11/29 02:37:54;;;;;;;2.70;1.58;;;22.70;58.90;;;;;;5019518;27;96941;-46
2021/11/29 02:40:25;;;;;;;2.53;2.05;;;22.80;58.70;;;;;;5010472;27;95973;-52
2021/11/29 02:42:56;;;;;;;2.08;1.80;;;22.90;58.70;;;;;;5017101;27;95745;-56
2021/11/29 02:45:31;;;;;;;2.08;1.60;;;22.90;58.70;;;;;;5027234;28;95900;-54
2021/11/29 02:48:02;;;;;;;1.67;1.40;;;23.00;58.80;;;;;;5026949;27;96181;-59
2021/11/29 02:50:37;;;;;;;;;;;23.10;58.90;;;;;;5025086;28;95915;-58
2021/11/29 02:53:16;;;;;;;1.10;1.00;;;23.10;59.00;;;;;;5028189;28;96503;-58
2021/11/29 02:55:48;;;;;;;1.52;1.40;;;23.20;59.00;;;;;;5017946;28;96505;-57
2021/11/29 02:58:19;;;;;;;2.58;1.63;;;23.00;54.10;;;;;;5016958;28;96320;-55
2021/11/29 03:00:52;;;;;;;2.80;1.40;;;22.80;56.40;;;;;;5022547;27;96409;-56
2021/11/29 03:03:23;;;;;;;1.33;1.10;;;22.70;56.60;;;;;;5020686;28;95308;-55
2021/11/29 03:05:57;;;;;;;1.58;1.38;;;22.70;56.80;;;;;;5021163;28;95556;-56
2021/11/29 03:08:28;;;;;;;1.48;1.38;;;22.70;56.90;;;;;;4998127;27;97664;-53
2021/11/29 03:11:01;;;;;;;2.47;1.20;;;22.80;57.60;;;;;;5024612;27;95809;-53
2021/11/29 03:13:36;;;;;;;1.92;1.23;;;22.90;57.60;;;;;;5020639;28;95544;-56
2021/11/29 03:16:07;;;;;;;1.30;1.20;;;23.10;57.70;;;;;;5023887;28;95276;-57
2021/11/29 03:18:43;;;;;;;2.15;1.40;;;23.20;57.80;;;;;;5023708;28;96434;-59
2021/11/29 03:21:17;;;;;;;1.33;1.20;;;23.20;57.80;;;;;;5026036;27;95995;-55
2021/11/29 03:23:53;;;;;;;2.40;1.20;;;23.30;57.90;;;;;;5026678;27;95699;-56
2021/11/29 03:26:25;;;;;;;1.98;1.25;;;23.40;58.00;;;;;;5025523;28;95988;-50
2021/11/29 03:29:00;;;;;;;1.52;1.42;;;23.40;58.10;;;;;;5022426;28;95888;-57
2021/11/29 03:31:33;;;;;;;1.52;1.20;;;23.50;58.10;;;;;;5016191;28;95451;-54
2021/11/29 03:34:06;;;;;;;1.50;1.20;;;23.60;58.20;;;;;;5016702;28;95681;-57
2021/11/29 03:36:41;;;;;;;2.58;2.20;;;23.70;58.30;;;;;;5015368;28;95509;-58
2021/11/29 03:39:22;;;;;;;2.03;1.60;;;23.50;55.40;;;;;;5002875;27;96385;-56
2021/11/29 03:41:58;;;;;;;2.53;1.98;;;23.30;56.60;;;;;;5027724;27;95970;-54
2021/11/29 03:44:29;;;;;;;5.22;2.70;;;23.20;56.60;;;;;;5011538;27;95790;-55
2021/11/29 03:47:01;;;;;;;3.95;2.90;;;23.00;55.70;;;;;;5001619;28;95864;-57
2021/11/29 03:49:33;;;;;;;4.13;2.80;;;22.80;53.90;;;;;;5021110;28;96378;-57
2021/11/29 03:52:05;;;;;;;5.05;2.90;;;22.60;52.60;;;;;;5008744;28;96403;-57
2021/11/29 03:54:38;;;;;;;2.70;2.45;;;22.40;52.20;;;;;;4990889;28;95425;-56
2021/11/29 03:57:08;;;;;;;4.03;2.85;;;22.30;52.20;;;;;;5019309;27;95664;-54
2021/11/29 03:59:39;;;;;;;3.97;2.85;;;22.30;52.20;;;;;;5021694;28;96092;-57
2021/11/29 04:02:12;;;;;;;2.70;2.30;;;22.20;51.80;;;;;;5017458;28;96315;-57
2021/11/29 04:04:44;;;;;;;7.30;2.97;;;22.20;50.90;;;;;;5016097;28;96024;-57
2021/11/29 04:07:15;;;;;;;4.20;2.55;;;22.10;51.20;;;;;;5021228;28;95641;-58
2021/11/29 04:09:46;;;;;;;3.15;2.40;;;22.10;51.70;;;;;;5021361;28;97634;-60
2021/11/29 04:12:16;;;;;;;3.97;2.50;;;22.10;52.20;;;;;;5021021;27;98134;-58
2021/11/29 04:14:47;;;;;;;2.57;2.27;;;22.10;52.20;;;;;;5021850;28;95511;-57
2021/11/29 04:17:20;;;;;;;2.67;2.35;;;22.10;52.30;;;;;;5022843;28;95985;-56
2021/11/29 04:19:51;;;;;;;3.42;2.22;;;22.10;52.20;;;;;;5016576;28;96751;-58
2021/11/29 04:22:22;;;;;;;3.97;2.30;;;22.10;52.10;;;;;;5019429;27;96438;-55
2021/11/29 04:24:58;;;;;;;3.03;2.10;;;22.10;52.10;;;;;;5022140;28;95732;-56
2021/11/29 04:27:30;;;;;;;2.92;2.22;;;22.10;52.20;;;;;;5012127;28;96350;-57
2021/11/29 04:30:11;;;;;;;4.55;2.60;;;22.10;52.20;;;;;;5012648;27;96342;-54
2021/11/29 04:32:50;;;;;;;2.80;2.00;;;22.10;52.10;;;;;;5019714;28;95928;-57
2021/11/29 04:35:21;;;;;;;2.20;2.00;;;22.00;51.90;;;;;;5018557;28;96375;-54
2021/11/29 04:37:54;;;;;;;3.90;2.42;;;22.10;52.10;;;;;;5017490;28;95840;-56
2021/11/29 04:40:24;;;;;;;2.75;2.17;;;22.10;52.10;;;;;;5010439;27;96138;-57
2021/11/29 04:42:54;;;;;;;3.07;2.10;;;22.10;52.00;;;;;;5013768;27;96072;-55
2021/11/29 04:45:25;;;;;;;3.63;1.77;;;22.10;51.90;;;;;;5019643;28;96620;-55
2021/11/29 04:47:57;;;;;;;;;;;22.10;52.10;;;;;;5023758;28;95355;-54
2021/11/29 04:50:29;;;;;;;3.10;2.05;;;22.10;52.40;;;;;;5021649;28;96383;-57
2021/11/29 04:53:02;;;;;;;7.88;2.08;;;22.10;52.60;;;;;;5014926;28;96472;-55
2021/11/29 04:55:32;;;;;;;4.13;1.80;;;22.20;52.70;;;;;;5018679;28;95866;-56
2021/11/29 04:58:05;;;;;;;4.93;2.15;;;22.20;52.90;;;;;;5018130;28;96384;-59
2021/11/29 05:00:36;;;;;;;6.70;2.20;;;22.30;53.10;;;;;;5020587;28;97324;-57
2021/11/29 05:03:09;;;;;;;3.50;1.73;;;22.30;53.30;;;;;;5001968;28;97706;-56
2021/11/29 05:05:42;;;;;;;4.18;1.85;;;22.30;53.40;;;;;;5020515;27;95654;-57
2021/11/29 05:08:30;;;;;;;7.38;1.90;;;22.30;53.50;;;;;;5029882;27;95712;-57
2021/11/29 05:11:05;;;;;;;4.13;1.90;;;22.40;53.70;;;;;;4982164;28;96900;-54
2021/11/29 05:13:38;;;;;;;4.45;1.80;;;22.40;53.00;;;;;;5019148;28;96397;-51
2021/11/29 05:16:10;;;;;;;3.45;2.00;;;22.30;52.50;;;;;;5020665;28;95831;-52
2021/11/29 05:18:43;;;;;;;4.30;2.03;;;22.30;51.20;;;;;;5020513;27;95725;-51
2021/11/29 05:21:16;;;;;;;7.15;2.13;;;22.20;51.50;;;;;;5001415;28;96370;-53
2021/11/29 05:23:51;;;;;;;3.90;1.75;;;22.20;51.40;;;;;;5019999;27;96619;-56
2021/11/29 05:26:24;;;;;;;5.25;1.80;;;22.20;51.40;;;;;;4999523;27;96065;-56
2021/11/29 05:28:57;;;;;;;3.67;2.10;;;22.20;51.60;;;;;;5003360;27;95987;-57
2021/11/29 05:31:30;;;;;;;4.50;1.95;;;22.20;51.30;;;;;;5018095;28;97043;-57
2021/11/29 05:34:03;;;;;;;2.45;1.70;;;22.20;51.30;;;;;;5013538;28;95765;-53
2021/11/29 05:36:36;;;;;;;4.35;2.25;;;22.10;51.10;;;;;;4999373;27;97154;-52
2021/11/29 05:39:07;;;;;;;3.20;1.85;;;22.10;51.00;;;;;;5006825;27;96043;-53
2021/11/29 05:41:38;;;;;;;2.60;1.20;;;22.10;51.00;;;;;;4991814;27;97148;-56
2021/11/29 05:44:09;;;;;;;1.73;1.63;;;22.10;50.80;;;;;;5013843;28;95901;-54
2021/11/29 05:46:41;;;;;;;2.20;1.50;;;22.10;50.60;;;;;;4999986;27;97600;-51
2021/11/29 05:49:16;;;;;;;5.40;1.65;;;22.10;50.50;;;;;;5008573;28;95975;-53
2021/11/29 05:51:47;;;;;;;3.20;1.90;;;22.00;50.50;;;;;;5020453;28;95989;-55
2021/11/29 05:54:18;;;;;;;4.43;1.95;;;22.10;50.70;;;;;;5017878;28;95789;-53
2021/11/29 05:56:48;;;;;;;1.90;1.60;;;22.10;50.80;;;;;;4998159;27;96819;-55
2021/11/29 05:59:21;;;;;;;2.70;2.08;;;22.10;50.90;;;;;;5005843;28;95926;-51
2021/11/29 06:01:51;;;;;;;4.25;1.90;;;22.10;50.90;;;;;;5015814;28;96058;-54
2021/11/29 06:04:23;;;;;;;4.50;2.13;;;22.10;51.10;;;;;;5016924;28;98906;-55
2021/11/29 06:06:56;;;;;;;5.30;2.35;;;22.10;51.30;;;;;;5016955;27;95965;-54
2021/11/29 06:09:29;;;;;;;4.00;2.28;;;22.10;51.50;;;;;;5007829;28;96536;-52
2021/11/29 06:12:00;;;;;;;3.80;1.50;;;22.10;51.70;;;;;;5018128;27;96449;-55
2021/11/29 06:14:31;;;;;;;3.67;1.90;;;22.10;51.80;;;;;;5017812;28;96790;-54
2021/11/29 06:17:03;;;;;;;3.35;1.95;;;22.10;52.10;;;;;;5014577;28;96467;-52
2021/11/29 06:19:36;;;;;;;2.40;1.58;;;22.10;52.20;;;;;;5018632;28;95919;-53
2021/11/29 06:22:10;;;;;;;4.97;1.80;;;22.10;52.40;;;;;;5021834;27;96801;-54
2021/11/29 06:24:41;;;;;;;3.03;1.90;;;22.10;52.40;;;;;;5022494;27;95968;-52
2021/11/29 06:27:12;;;;;;;4.03;1.77;;;22.10;52.60;;;;;;5022505;28;95733;-54
2021/11/29 06:29:45;;;;;;;4.47;2.20;;;22.20;52.70;;;;;;5020611;27;95775;-58
2021/11/29 06:32:17;;;;;;;4.80;1.90;;;22.20;52.60;;;;;;5018196;28;95901;-56
2021/11/29 06:34:53;;;;;;;3.50;1.88;;;22.20;52.70;;;;;;5014669;28;96168;-52
2021/11/29 06:37:28;;;;;;;3.23;1.60;;;22.20;52.60;;;;;;5022717;28;95823;-57
2021/11/29 06:39:58;;;;;;;3.65;1.73;;;22.10;51.70;;;;;;5014695;27;96474;-55
2021/11/29 06:42:30;;;;;;;2.40;1.67;;;22.10;52.40;;;;;;5013669;27;96076;-56
2021/11/29 06:45:01;;;;;;;2.70;1.67;;;22.10;52.30;;;;;;5019587;28;96271;-52
2021/11/29 06:47:33;;;;;;;3.75;1.83;;;22.00;52.20;;;;;;5022774;28;96114;-55
2021/11/29 06:50:04;;;;;;;10.32;2.38;;;22.10;52.20;;;;;;5018224;28;95805;-55
2021/11/29 06:52:38;;;;;;;3.25;2.05;;;22.10;52.30;;;;;;5021239;28;97529;-55
2021/11/29 06:55:12;;;;;;;5.15;2.03;;;22.10;52.40;;;;;;5020201;28;96548;-52
2021/11/29 06:57:45;;;;;;;2.88;1.85;;;22.10;52.50;;;;;;5020869;28;96029;-56
2021/11/29 07:00:26;;;;;;;4.00;2.28;;;22.10;52.50;;;;;;5020643;28;97070;-55
2021/11/29 07:03:00;;;;;;;2.93;1.80;;;22.10;52.60;;;;;;5018171;28;96129;-53
2021/11/29 07:05:33;;;;;;;2.42;1.70;;;22.10;52.80;;;;;;5009463;28;95772;-55
2021/11/29 07:08:08;;;;;;;2.53;1.60;;;22.20;53.00;;;;;;5017606;28;95883;-53
2021/11/29 07:10:40;;;;;;;4.68;1.92;;;22.20;53.00;;;;;;5004849;28;95748;-54
2021/11/29 07:13:12;;;;;;;3.00;2.00;;;22.10;53.80;;;;;;5018613;28;96985;-55
2021/11/29 07:15:45;;;;;;;3.58;1.80;;;22.20;53.40;;;;;;5014517;28;95786;-54
2021/11/29 07:18:18;;;;;;;2.58;2.00;;;22.20;53.30;;;;;;5010433;28;96396;-52
2021/11/29 07:20:50;;;;;;;2.88;1.98;;;22.20;53.50;;;;;;5008058;28;95752;-56
2021/11/29 07:23:20;;;;;;;3.83;1.92;;;22.20;53.50;;;;;;5013400;28;97082;-52
2021/11/29 07:25:52;;;;;;;4.20;1.98;;;22.20;53.70;;;;;;5015998;28;95991;-52
2021/11/29 07:28:23;;;;;;;2.00;1.80;;;22.20;53.90;;;;;;5020288;27;96829;-53
2021/11/29 07:30:55;;;;;;;3.63;1.83;;;22.20;53.90;;;;;;5017120;28;95986;-52
2021/11/29 07:33:26;;;;;;;5.32;2.47;;;22.30;54.10;;;;;;5016908;28;96378;-55
2021/11/29 07:35:58;;;;;;;2.75;2.08;;;22.30;54.10;;;;;;5017343;28;96173;-55
2021/11/29 07:38:30;;;;;;;4.88;2.15;;;22.30;54.20;;;;;;5018031;28;96502;-55
2021/11/29 07:41:02;;;;;;;5.28;1.83;;;22.30;54.30;;;;;;5012787;27;96079;-55
2021/11/29 07:43:32;;;;;;;3.83;1.98;;;22.30;53.60;;;;;;5018292;27;96734;-53
2021/11/29 07:46:05;;;;;;;5.05;2.25;;;22.30;54.20;;;;;;5020854;28;96573;-52
2021/11/29 07:48:37;;;;;;;4.72;1.92;;;22.30;54.10;;;;;;5020453;28;95666;-52
2021/11/29 07:51:08;;;;;;;5.00;2.30;;;22.30;54.00;;;;;;5020250;28;95619;-55
2021/11/29 07:53:42;;;;;;;3.75;1.77;;;22.30;54.00;;;;;;5021297;28;95771;-56
2021/11/29 07:56:14;;;;;;;4.47;2.33;;;22.30;54.10;;;;;;5017146;28;96016;-53
2021/11/29 07:58:48;;;;;;;4.72;1.90;;;22.30;54.10;;;;;;5015330;28;95934;-55
2021/11/29 08:01:19;;;;;;;4.78;2.15;;;22.30;54.20;;;;;;5021436;28;96359;-57
2021/11/29 08:03:50;;;;;;;8.48;2.80;;;22.30;54.80;;;;;;5017960;27;96725;-55
2021/11/29 08:06:21;;;;;;;2.75;2.40;;;22.30;55.30;;;;;;5020234;28;95604;-55
2021/11/29 08:08:52;;;;;;;3.47;2.42;;;22.40;56.00;;;;;;5020368;28;95906;-53
2021/11/29 08:11:24;;;;;;;5.53;2.47;;;22.40;56.80;;;;;;5017950;28;95823;-55
2021/11/29 08:13:54;;;;;;;;;;;22.50;57.00;;;;;;5014707;28;96625;-54
2021/11/29 08:16:26;;;;;;;4.03;2.80;;;22.50;57.50;;;;;;5012705;27;96196;-55
2021/11/29 08:18:59;;;;;;;4.57;2.70;;;22.50;57.70;;;;;;5016963;28;96394;-56
2021/11/29 08:21:50;;;;;;;4.78;2.83;;;22.50;58.10;;;;;;5011921;28;95698;-53
2021/11/29 08:24:21;;;;;;;3.72;2.72;;;22.60;58.70;;;;;;5018895;27;96593;-53
2021/11/29 08:26:52;;;;;;;7.28;3.55;;;22.50;58.90;;;;;;5014041;28;95737;-54
2021/11/29 08:29:23;;;;;;;4.43;2.97;;;22.50;59.10;;;;;;5009053;28;95762;-55
2021/11/29 08:31:56;;;;;;;7.65;3.08;;;22.50;59.30;;;;;;5012472;28;96175;-56
2021/11/29 08:34:27;;;;;;;5.22;2.97;;;22.50;59.40;;;;;;5011395;27;96011;-55
2021/11/29 08:36:57;;;;;;;4.28;3.13;;;22.40;59.30;;;;;;5017382;28;95868;-56
2021/11/29 08:39:30;;;;;;;7.27;3.77;;;22.40;59.30;;;;;;5017111;27;95783;-56
2021/11/29 08:42:02;;;;;;;5.00;3.20;;;22.40;59.80;;;;;;5023898;27;96049;-54
2021/11/29 08:44:34;;;;;;;6.90;3.80;;;22.30;60.10;;;;;;5008764;28;96434;-54
2021/11/29 08:47:07;;;;;;;4.60;2.85;;;22.30;60.50;;;;;;5013689;28;95904;-55
2021/11/29 08:49:39;;;;;;;5.80;3.67;;;22.30;60.50;;;;;;5019632;28;95303;-56
2021/11/29 08:52:11;;;;;;;3.95;3.45;;;22.30;60.80;;;;;;5017018;28;95642;-54
2021/11/29 08:54:43;;;;;;;9.23;3.15;;;22.30;61.00;;;;;;5016251;28;96356;-56
2021/11/29 08:57:16;;;;;;;5.63;3.58;;;22.30;61.10;;;;;;5027281;28;96196;-54
2021/11/29 08:59:48;;;;;;;4.00;3.00;;;22.30;61.20;;;;;;5016591;28;95842;-55
2021/11/29 09:02:19;;;;;;;6.10;2.97;;;22.30;61.40;;;;;;5015720;28;95605;-56
2021/11/29 09:04:50;;;;;;;4.53;3.15;;;22.30;60.70;;;;;;5008351;28;97010;-55
2021/11/29 09:07:23;;;;;;;4.43;3.72;;;22.30;61.50;;;;;;5022636;28;96395;-55
2021/11/29 09:09:54;;;;;;;5.10;3.25;;;22.30;61.50;;;;;;5011006;28;95663;-56
2021/11/29 09:12:26;;;;;;;5.07;3.67;;;22.30;61.60;;;;;;5017345;28;95793;-54
2021/11/29 09:14:58;;;;;;;6.40;2.78;;;22.30;61.60;;;;;;5010234;28;95917;-56
2021/11/29 09:17:30;;;;;;;5.85;3.15;;;22.30;61.70;;;;;;5015817;28;95663;-58
2021/11/29 09:20:04;;;;;;;6.53;3.50;;;22.30;61.70;;;;;;5011480;28;95780;-53
2021/11/29 09:22:36;;;;;;;6.32;3.42;;;22.20;61.70;;;;;;5013116;28;96868;-54
2021/11/29 09:25:09;;;;;;;4.82;3.35;;;22.30;62.50;;;;;;5014628;27;96358;-56
2021/11/29 09:27:43;;;;;;;6.30;3.67;;;22.20;62.00;;;;;;5010340;28;95848;-55
2021/11/29 09:30:18;;;;;;;7.90;3.08;;;22.20;61.90;;;;;;5017292;28;95805;-56
2021/11/29 09:32:50;;;;;;;6.70;3.38;;;22.20;62.10;;;;;;5012531;28;95990;-54
2021/11/29 09:35:21;;;;;;;4.80;3.03;;;22.20;62.10;;;;;;5014336;28;96506;-57
2021/11/29 09:37:52;;;;;;;4.72;3.10;;;22.20;62.30;;;;;;5008213;28;96080;-54
2021/11/29 09:40:29;;;;;;;7.40;4.05;;;22.20;62.20;;;;;;5018279;27;95850;-54
2021/11/29 09:43:04;;;;;;;4.68;3.08;;;22.20;62.30;;;;;;5018294;27;95746;-58
2021/11/29 09:45:35;;;;;;;5.05;3.60;;;22.20;62.30;;;;;;5024060;28;95913;-55
2021/11/29 09:48:09;;;;;;;5.95;3.40;;;22.20;62.50;;;;;;5016812;28;95811;-53
2021/11/29 09:50:47;;;;;;;5.32;3.38;;;22.20;62.40;;;;;;5025530;28;95840;-53
2021/11/29 09:53:21;;;;;;;8.15;3.10;;;22.10;62.70;;;;;;5015624;27;96897;-55
2021/11/29 09:55:53;;;;;;;4.45;3.35;;;22.10;62.60;;;;;;5015392;28;97280;-54
2021/11/29 09:58:24;;;;;;;4.28;3.28;;;22.10;62.70;;;;;;5018119;28;96016;-55
2021/11/29 10:00:58;;;;;;;6.13;3.50;;;22.10;62.90;;;;;;5018015;28;96040;-55
2021/11/29 10:03:32;;;;;;;4.00;3.40;;;22.10;63.00;;;;;;5017502;28;95895;-55
2021/11/29 10:06:06;;;;;;;11.23;3.60;;;22.00;63.10;;;;;;5019982;28;96624;-55
2021/11/29 10:08:39;;;;;;;4.70;2.92;;;22.00;63.10;;;;;;5019215;28;95564;-55
2021/11/29 10:11:26;;;;;;;7.68;3.35;;;22.00;63.20;;;;;;5017559;27;95845;-52
2021/11/29 10:14:06;;;;;;;6.45;3.00;;;22.00;63.30;;;;;;5021771;28;95632;-54
2021/11/29 10:16:43;;;;;;;4.13;3.00;;;22.00;63.40;;;;;;5015868;28;96057;-55
2021/11/29 10:19:22;;;;;;;8.55;4.22;;;21.90;63.50;;;;;;5015818;28;95244;-54
2021/11/29 10:21:54;;;;;;;6.35;3.28;;;21.90;63.60;;;;;;5016332;28;95695;-55
2021/11/29 10:24:26;;;;;;;5.63;3.28;;;21.90;63.60;;;;;;5022318;28;95961;-54
2021/11/29 10:26:57;;;;;;;5.72;3.30;;;21.90;63.80;;;;;;5009239;28;96964;-54
2021/11/29 10:29:53;;;;;;;;;;;21.90;63.80;;;;;;5013676;28;95807;-57
2021/11/29 10:32:43;;;;;;;7.63;2.83;;;21.90;64.00;;;;;;5009529;27;95711;-52
2021/11/29 10:35:33;;;;;;;8.18;2.75;;;21.90;63.90;;;;;;5012692;28;95792;-56
2021/11/29 10:38:06;;;;;;;4.40;3.00;;;21.90;64.00;;;;;;5011438;28;96289;-54
2021/11/29 10:40:38;;;;;;;3.92;2.80;;;21.80;64.00;;;;;;5017309;27;95813;-53
2021/11/29 10:43:10;;;;;;;2.70;2.40;;;21.80;64.10;;;;;;5014986;27;95792;-55
2021/11/29 10:45:41;;;;;;;6.00;2.95;;;21.80;64.30;;;;;;5011172;28;95796;-55
2021/11/29 10:48:30;;;;;;;6.15;2.58;;;21.80;64.30;;;;;;5020640;28;96332;-52
2021/11/29 10:51:10;;;;;;;6.78;2.58;;;21.80;64.40;;;;;;5017813;28;96216;-58
2021/11/29 10:54:03;;;;;;;3.00;2.65;;;21.70;64.50;;;;;;5032023;27;96568;-55
2021/11/29 10:56:37;;;;;;;9.10;3.65;;;21.70;64.50;;;;;;5019664;28;97161;-51
2021/11/29 10:59:13;;;;;;;4.32;2.83;;;21.70;64.60;;;;;;5015603;28;96338;-51
2021/11/29 11:01:54;;;;;;;5.20;2.80;;;21.70;64.50;;;;;;4995746;28;96817;-52
2021/11/29 11:04:27;;;;;;;4.38;2.85;;;21.70;64.60;;;;;;5017596;28;95745;-53
2021/11/29 11:07:01;;;;;;;4.47;2.78;;;21.60;64.70;;;;;;5023887;28;96955;-56
2021/11/29 11:09:35;;;;;;;3.30;2.50;;;21.60;64.70;;;;;;5017121;28;96588;-53
2021/11/29 11:12:14;;;;;;;3.53;2.42;;;21.60;64.80;;;;;;5015035;28;95852;-52
2021/11/29 11:14:56;;;;;;;4.57;2.80;;;21.60;64.90;;;;;;5003391;28;95601;-54
2021/11/29 11:17:39;;;;;;;4.30;2.58;;;21.60;64.90;;;;;;5009874;28;95810;-55
2021/11/29 11:20:13;;;;;;;6.40;2.92;;;21.50;64.90;;;;;;5000174;28;99094;-51
2021/11/29 11:22:55;;;;;;;5.45;3.08;;;21.50;65.00;;;;;;5017396;28;96915;-57
2021/11/29 11:25:35;;;;;;;5.43;2.28;;;21.50;65.70;;;;;;5019826;27;97556;-55
2021/11/29 11:28:10;;;;;;;3.80;2.38;;;21.50;65.10;;;;;;5014870;28;95920;-53
2021/11/29 11:30:44;;;;;;;5.95;2.90;;;21.50;65.20;;;;;;5008634;28;95899;-54
2021/11/29 11:33:20;;;;;;;3.53;2.50;;;21.50;65.20;;;;;;5008368;28;95646;-53
2021/11/29 11:35:53;;;;;;;3.75;2.30;;;21.50;65.30;;;;;;5008989;28;95926;-57
2021/11/29 11:38:26;;;;;;;4.53;3.10;;;21.40;65.30;;;;;;5011110;28;96032;-54
2021/11/29 11:40:59;;;;;;;4.50;2.80;;;21.40;65.30;;;;;;5016696;27;97914;-54
2021/11/29 11:43:32;;;;;;;3.72;2.42;;;21.40;65.40;;;;;;5011941;27;95609;-55
2021/11/29 11:46:13;;;;;;;4.55;2.50;;;21.40;65.50;;;;;;5009364;28;95915;-56
2021/11/29 11:48:43;;;;;;;4.13;2.33;;;21.40;65.60;;;;;;5011579;28;95992;-58
2021/11/29 11:51:15;;;;;;;3.05;2.30;;;21.30;65.60;;;;;;5008444;28;96050;-54
2021/11/29 11:53:48;;;;;;;2.15;2.03;;;21.30;65.60;;;;;;4996966;28;95988;-53
2021/11/29 11:56:19;;;;;;;3.80;2.33;;;21.30;65.70;;;;;;5016692;28;96049;-53
2021/11/29 11:59:00;;;;;;;4.10;2.37;;;21.30;65.70;;;;;;5015495;28;95323;-56
2021/11/29 12:01:39;;;;;;;2.92;2.60;;;21.30;65.80;;;;;;5010883;28;96414;-55
2021/11/29 12:04:22;;;;;;;4.28;2.80;;;21.30;66.10;;;;;;5016425;28;95556;-55
2021/11/29 12:06:53;;;;;;;3.28;2.05;;;21.20;66.00;;;;;;5012862;28;97968;-56
2021/11/29 12:09:36;;;;;;;4.75;2.40;;;21.20;66.20;;;;;;5014957;28;95815;-55
2021/11/29 12:12:09;;;;;;;3.78;2.00;;;21.20;66.30;;;;;;5015029;28;96367;-56
2021/11/29 12:14:40;;;;;;;4.05;2.13;;;21.20;66.30;;;;;;5018664;27;95771;-54
2021/11/29 12:17:19;;;;;;;3.25;2.50;;;21.10;66.20;;;;;;5016891;28;96149;-55
2021/11/29 12:19:51;;;;;;;2.85;2.10;;;21.10;66.40;;;;;;5016229;27;95659;-54
2021/11/29 12:22:32;;;;;;;3.17;2.15;;;21.10;66.50;;;;;;5015600;27;96365;-55
2021/11/29 12:25:24;;;;;;;4.13;2.20;;;21.10;65.80;;;;;;5000055;28;95895;-54
2021/11/29 12:28:03;;;;;;;5.68;2.45;;;21.10;66.80;;;;;;5009713;28;95878;-55
2021/11/29 12:30:40;;;;;;;2.83;1.92;;;21.00;66.80;;;;;;5012489;28;95518;-56
2021/11/29 12:33:16;;;;;;;3.20;1.88;;;21.00;67.00;;;;;;5016377;28;96487;-55
2021/11/29 12:36:01;;;;;;;2.85;2.25;;;21.00;67.10;;;;;;5013366;28;95836;-54
2021/11/29 12:38:49;;;;;;;4.18;2.47;;;21.00;67.00;;;;;;4996335;27;95959;-56
2021/11/29 12:41:39;;;;;;;2.80;2.10;;;21.00;67.20;;;;;;5014354;27;95989;-53
2021/11/29 12:44:33;;;;;;;4.88;2.00;;;21.10;67.40;;;;;;5016567;28;96285;-58
2021/11/29 12:47:18;;;;;;;;;;;21.30;67.50;;;;;;4996260;28;97195;-56
2021/11/29 12:49:56;;;;;;;2.13;1.52;;;21.40;67.30;;;;;;5023139;28;95746;-47
2021/11/29 12:52:39;;;;;;;2.15;1.55;;;21.60;67.20;;;;;;4994089;28;95776;-57
2021/11/29 12:55:19;;;;;;;2.10;1.65;;;21.80;66.90;;;;;;5001672;28;96440;-56
2021/11/29 12:58:10;;;;;;;3.55;1.90;;;22.10;66.30;;;;;;5012445;28;95956;-61
2021/11/29 13:00:44;;;;;;;2.22;1.88;;;22.30;65.80;;;;;;5019875;28;95954;-58
2021/11/29 13:03:17;;;;;;;1.80;1.45;;;22.50;65.30;;;;;;4998068;28;95829;-62
2021/11/29 13:06:02;;;;;;;1.63;1.48;;;22.60;64.90;;;;;;5012761;28;96025;-61
2021/11/29 13:08:34;;;;;;;4.43;1.60;;;22.80;64.50;;;;;;5015240;28;96374;-53
2021/11/29 13:11:11;;;;;;;1.95;1.55;;;22.90;63.80;;;;;;5008906;28;95687;-53
2021/11/29 13:13:45;;;;;;;1.60;1.50;;;22.90;63.10;;;;;;5006605;28;95936;-56
2021/11/29 13:16:25;;;;;;;2.60;1.98;;;23.00;63.90;;;;;;5012139;28;98462;-56
2021/11/29 13:19:25;;;;;;;1.83;1.65;;;23.10;63.80;;;;;;5014242;28;95507;-58
2021/11/29 13:22:07;;;;;;;2.45;1.52;;;23.20;63.60;;;;;;5021533;27;95443;-53